Terminal Aerodrome Forecast
Issued by NWS San Angelo, TX

Home | Current Version | Previous Version | Text Only | Print | Product List | Glossary On
Versions: 1 2 3 4 5 6 7 8 9 10 11 12 13 14 15 16 17 18
000
FTUS44 KSJT 280500
TAFSJT
TAF
KSJT 280521Z 2806/2906 36006KT P6SM SCT100 OVC250
     FM281100 VRB04KT P6SM FEW050 OVC090
     FM281700 22006KT P6SM SKC=

USA.gov is the U.S. government's official web portal to all federal, state and local government web resources and services.